createdAt,value
2019-05-30T09:19:18.881Z,157.50
2019-05-30T09:20:18.859Z,151.88
2019-05-30T09:21:18.850Z,151.88
2019-05-30T09:22:18.842Z,157.50
2019-05-30T09:23:18.826Z,146.25
2019-05-30T09:24:18.854Z,146.25
2019-05-30T09:25:18.803Z,135.00
2019-05-30T09:26:18.792Z,129.38
2019-05-30T09:27:18.783Z,123.75
2019-05-30T09:28:18.769Z,118.12
2019-05-30T09:29:18.770Z,118.12
2019-05-30T09:30:18.746Z,118.12
2019-05-30T09:31:18.734Z,118.12
2019-05-30T09:32:18.725Z,106.88
2019-05-30T09:33:18.712Z,106.88
2019-05-30T09:34:18.710Z,101.25
2019-05-30T09:35:18.696Z,106.88
2019-05-30T09:36:18.722Z,106.88
2019-05-30T09:37:18.668Z,95.62
2019-05-30T09:38:18.658Z,95.62
2019-05-30T09:39:18.655Z,112.50
2019-05-30T09:40:18.638Z,118.12
2019-05-30T09:41:18.624Z,106.88
2019-05-30T09:42:18.615Z,95.62
2019-05-30T09:43:18.603Z,95.62
2019-05-30T09:44:18.606Z,90.00
2019-05-30T09:45:18.580Z,90.00
2019-05-30T09:46:18.571Z,84.38
2019-05-30T09:47:18.562Z,78.75
2019-05-30T09:48:18.548Z,78.75
2019-05-30T09:49:18.544Z,78.75
2019-05-30T09:50:18.525Z,73.12
2019-05-30T09:51:18.514Z,78.75
2019-05-30T09:52:18.503Z,84.38
2019-05-30T09:53:18.493Z,84.38
2019-05-30T09:54:18.490Z,84.38
2019-05-30T09:55:18.468Z,95.62
2019-05-30T09:56:18.456Z,118.12
2019-05-30T09:57:18.446Z,135.00
2019-05-30T09:58:18.438Z,135.00
2019-05-30T09:59:18.431Z,129.38
2019-05-30T10:00:18.410Z,118.12
2019-05-30T10:01:18.401Z,118.12
2019-05-30T10:02:18.391Z,129.38
2019-05-30T10:03:18.379Z,135.00
2019-05-30T10:04:18.376Z,123.75
2019-05-30T10:05:18.355Z,112.50
2019-05-30T10:06:28.876Z,112.50
2019-05-30T10:07:19.330Z,101.25
2019-05-30T10:08:18.322Z,84.38
2019-05-30T10:09:18.319Z,78.75
2019-05-30T10:10:18.299Z,78.75
2019-05-30T10:11:18.287Z,78.75
2019-05-30T10:12:18.277Z,61.88
2019-05-30T10:13:18.261Z,50.62
2019-05-30T10:14:18.258Z,45.00
2019-05-30T10:15:18.240Z,45.00
2019-05-30T10:16:18.230Z,50.62
2019-05-30T10:17:18.218Z,56.25
2019-05-30T10:18:18.205Z,61.88
2019-05-30T10:19:18.286Z,56.25
2019-05-30T10:20:18.184Z,56.25
2019-05-30T10:21:18.171Z,50.62
2019-05-30T10:22:18.163Z,56.25
2019-05-30T10:23:18.151Z,56.25
2019-05-30T10:24:18.136Z,67.50
2019-05-30T10:25:18.136Z,67.50
2019-05-30T10:26:18.115Z,67.50
2019-05-30T10:27:18.104Z,67.50
2019-05-30T10:28:18.092Z,67.50
2019-05-30T10:29:18.079Z,67.50
2019-05-30T10:30:18.077Z,73.12
2019-05-30T10:31:18.057Z,73.12
2019-05-30T10:32:18.048Z,67.50
2019-05-30T10:33:18.033Z,67.50
2019-05-30T10:34:18.024Z,73.12
2019-05-30T10:35:18.021Z,78.75
2019-05-30T10:36:20.157Z,73.12
2019-05-30T10:37:17.990Z,73.12
2019-05-30T10:38:20.102Z,73.12
2019-05-30T10:39:17.975Z,73.12
2019-05-30T10:40:17.967Z,67.50
2019-05-30T10:41:17.944Z,61.88
2019-05-30T10:42:17.932Z,56.25
2019-05-30T10:43:17.920Z,50.62
2019-05-30T10:44:17.909Z,50.62
2019-05-30T10:45:17.909Z,56.25
2019-05-30T10:46:17.886Z,61.88
2019-05-30T10:47:17.874Z,73.12
2019-05-30T10:48:20.670Z,78.75
2019-05-30T10:49:31.523Z,95.62
2019-05-30T10:50:18.847Z,106.88
2019-05-30T10:51:17.827Z,101.25
2019-05-30T10:52:17.816Z,95.62
2019-05-30T10:53:17.816Z,95.62
2019-05-30T10:54:17.791Z,95.62
2019-05-30T10:55:17.791Z,101.25
2019-05-30T10:56:17.770Z,112.50
2019-05-30T10:57:17.758Z,129.38
2019-05-30T10:58:17.756Z,129.38
2019-05-30T10:59:17.736Z,140.62
2019-05-30T11:00:17.737Z,157.50
2019-05-30T11:01:17.721Z,163.12
2019-05-30T11:02:17.705Z,168.75
2019-05-30T11:03:17.694Z,174.38
2019-05-30T11:04:17.680Z,174.38
2019-05-30T11:05:17.679Z,213.75
2019-05-30T11:06:17.660Z,191.25
2019-05-30T11:07:17.644Z,174.38
2019-05-30T11:08:17.634Z,163.12
2019-05-30T11:09:17.625Z,163.12
2019-05-30T11:10:17.621Z,157.50
2019-05-30T11:11:17.604Z,163.12
2019-05-30T11:12:17.592Z,135.00
2019-05-30T11:13:17.577Z,123.75
2019-05-30T11:14:17.570Z,112.50
2019-05-30T11:15:17.566Z,112.50
2019-05-30T11:16:17.545Z,106.88
2019-05-30T11:17:17.534Z,112.50
2019-05-30T11:18:17.523Z,106.88
2019-05-30T11:19:17.515Z,101.25
2019-05-30T11:20:17.514Z,95.62
2019-05-30T11:21:17.489Z,90.00
2019-05-30T11:22:17.478Z,67.50
2019-05-30T11:23:17.471Z,61.88
2019-05-30T11:24:17.479Z,56.25
2019-05-30T11:25:17.444Z,50.62
2019-05-30T11:26:17.441Z,50.62
2019-05-30T11:27:17.422Z,67.50
2019-05-30T11:28:17.417Z,78.75
2019-05-30T11:29:17.399Z,78.75
2019-05-30T11:30:17.391Z,67.50
2019-05-30T11:31:17.405Z,67.50
2019-05-30T11:32:17.367Z,56.25
2019-05-30T11:33:17.360Z,45.00
2019-05-30T11:34:17.348Z,39.38
2019-05-30T11:35:17.335Z,45.00
2019-05-30T11:36:17.338Z,61.88
2019-05-30T11:37:18.901Z,73.12
2019-05-30T11:38:17.303Z,73.12
2019-05-30T11:39:17.306Z,73.12
2019-05-30T11:40:17.278Z,73.12
2019-05-30T11:41:17.278Z,73.12
2019-05-30T11:42:17.256Z,84.38
2019-05-30T11:43:17.244Z,112.50
2019-05-30T11:44:17.235Z,140.62
2019-05-30T11:45:17.223Z,157.50
2019-05-30T11:46:17.222Z,163.12
2019-05-30T11:47:17.201Z,146.25
2019-05-30T11:48:17.189Z,123.75
2019-05-30T11:49:17.192Z,106.88
2019-05-30T11:50:17.166Z,101.25
2019-05-30T11:51:17.167Z,101.25
2019-05-30T11:52:17.146Z,106.88
2019-05-30T11:53:17.132Z,123.75
2019-05-30T11:54:17.123Z,123.75
2019-05-30T11:55:17.110Z,118.12
2019-05-30T11:56:17.119Z,112.50
2019-05-30T11:57:17.086Z,106.88
2019-05-30T11:58:19.633Z,106.88
2019-05-30T11:59:17.066Z,101.25
2019-05-30T12:00:17.056Z,90.00
2019-05-30T12:01:17.055Z,78.75
2019-05-30T12:02:17.040Z,67.50
2019-05-30T12:03:17.019Z,56.25
2019-05-30T12:04:17.010Z,50.62
2019-05-30T12:05:17.000Z,45.00
2019-05-30T12:06:16.997Z,39.38
2019-05-30T12:07:16.975Z,39.38
2019-05-30T12:08:16.965Z,33.75
2019-05-30T12:09:16.959Z,33.75
2019-05-30T12:10:16.943Z,33.75
2019-05-30T12:11:16.940Z,28.12
2019-05-30T12:12:16.924Z,28.12
2019-05-30T12:13:16.910Z,33.75
2019-05-30T12:14:16.898Z,33.75
2019-05-30T12:15:16.885Z,39.38
2019-05-30T12:16:16.883Z,39.38
2019-05-30T12:17:16.864Z,39.38
2019-05-30T12:18:16.853Z,39.38
2019-05-30T12:19:16.848Z,45.00
2019-05-30T12:20:16.832Z,50.62
2019-05-30T12:21:16.828Z,50.62
2019-05-30T12:22:16.807Z,50.62
2019-05-30T12:23:16.796Z,56.25
2019-05-30T12:24:16.785Z,67.50
2019-05-30T12:25:16.775Z,67.50
2019-05-30T12:26:16.773Z,61.88
2019-05-30T12:27:16.753Z,56.25
2019-05-30T12:28:16.743Z,61.88
2019-05-30T12:29:16.734Z,67.50
2019-05-30T12:30:16.723Z,67.50
2019-05-30T12:31:16.717Z,67.50
2019-05-30T12:32:16.697Z,61.88
2019-05-30T12:33:16.685Z,50.62
2019-05-30T12:34:16.677Z,50.62
2019-05-30T12:35:16.665Z,45.00
2019-05-30T12:36:16.664Z,50.62
2019-05-30T12:37:16.647Z,50.62
2019-05-30T12:38:16.630Z,50.62
2019-05-30T12:39:16.618Z,50.62
2019-05-30T12:40:16.611Z,50.62
2019-05-30T12:41:16.613Z,45.00
2019-05-30T12:42:16.587Z,39.38
2019-05-30T12:43:16.576Z,50.62
2019-05-30T12:44:16.562Z,67.50
2019-05-30T12:45:16.552Z,84.38
2019-05-30T12:46:16.540Z,90.00
2019-05-30T12:47:16.538Z,129.38
2019-05-30T12:48:16.516Z,157.50
2019-05-30T12:49:16.507Z,157.50
2019-05-30T12:50:16.889Z,140.62
2019-05-30T12:51:16.483Z,129.38
2019-05-30T12:52:16.484Z,123.75
2019-05-30T12:53:16.463Z,112.50
2019-05-30T12:54:16.472Z,106.88
2019-05-30T12:55:16.439Z,90.00
2019-05-30T12:56:16.429Z,78.75
2019-05-30T12:57:16.427Z,61.88
2019-05-30T12:58:16.404Z,61.88
2019-05-30T12:59:16.395Z,78.75
2019-05-30T13:00:18.839Z,90.00
2019-05-30T13:01:16.371Z,73.12
2019-05-30T13:02:16.370Z,45.00
2019-05-30T13:03:16.349Z,33.75
2019-05-30T13:04:16.339Z,28.12
2019-05-30T13:05:16.329Z,28.12
2019-05-30T13:06:16.318Z,33.75
2019-05-30T13:07:16.339Z,33.75
2019-05-30T13:08:21.708Z,28.12
2019-05-30T13:09:17.282Z,33.75
2019-05-30T13:10:16.271Z,39.38
2019-05-30T13:11:16.264Z,45.00
2019-05-30T13:12:16.278Z,50.62
2019-05-30T13:13:16.237Z,50.62
2019-05-30T13:14:16.230Z,50.62
2019-05-30T13:15:16.219Z,61.88
2019-05-30T13:16:16.212Z,67.50
2019-05-30T13:17:16.204Z,56.25
2019-05-30T13:18:16.185Z,61.88
2019-05-30T13:19:16.170Z,73.12
2019-05-30T13:20:16.161Z,67.50
2019-05-30T13:21:16.151Z,56.25
2019-05-30T13:22:16.147Z,56.25
2019-05-30T13:23:16.127Z,73.12
2019-05-30T13:24:16.116Z,78.75
2019-05-30T13:25:16.106Z,56.25
2019-05-30T13:26:16.094Z,45.00
2019-05-30T13:27:16.095Z,50.62
2019-05-30T13:28:16.076Z,61.88
2019-05-30T13:29:16.062Z,61.88
2019-05-30T13:30:16.050Z,61.88
2019-05-30T13:31:16.038Z,67.50
2019-05-30T13:32:16.042Z,73.12
2019-05-30T13:33:16.015Z,73.12
2019-05-30T13:34:16.003Z,73.12
2019-05-30T13:35:15.992Z,67.50
2019-05-30T13:36:15.981Z,61.88
2019-05-30T13:37:15.988Z,56.25
2019-05-30T13:38:26.021Z,45.00
2019-05-30T13:39:16.950Z,39.38
2019-05-30T13:40:24.815Z,39.38
2019-05-30T13:41:16.924Z,50.62
2019-05-30T13:42:15.918Z,73.12
2019-05-30T13:43:15.912Z,90.00
2019-05-30T13:44:15.890Z,95.62
2019-05-30T13:45:15.878Z,95.62
2019-05-30T13:46:15.870Z,90.00
2019-05-30T13:47:15.858Z,90.00
2019-05-30T13:48:15.859Z,84.38
2019-05-30T13:49:15.836Z,67.50
2019-05-30T13:50:15.845Z,50.62
2019-05-30T13:51:15.814Z,39.38
2019-05-30T13:52:15.805Z,33.75
2019-05-30T13:53:15.801Z,33.75
2019-05-30T13:54:15.781Z,39.38
2019-05-30T13:55:15.767Z,45.00
2019-05-30T13:56:15.756Z,50.62
2019-05-30T13:57:15.745Z,61.88
2019-05-30T13:58:15.744Z,78.75
2019-05-30T13:59:15.724Z,90.00
2019-05-30T14:00:15.719Z,84.38
2019-05-30T14:01:15.713Z,84.38
2019-05-30T14:02:15.691Z,84.38
2019-05-30T14:03:15.687Z,84.38
2019-05-30T14:04:15.674Z,84.38
2019-05-30T14:05:15.655Z,84.38
2019-05-30T14:06:15.643Z,78.75
2019-05-30T14:07:15.638Z,78.75
2019-05-30T14:08:16.728Z,78.75
2019-05-30T14:09:15.609Z,73.12
2019-05-30T14:10:15.600Z,73.12
2019-05-30T14:11:15.591Z,67.50
2019-05-30T14:12:15.575Z,67.50
2019-05-30T14:13:15.573Z,67.50
2019-05-30T14:14:15.553Z,61.88
2019-05-30T14:15:15.544Z,61.88
2019-05-30T14:16:15.533Z,61.88
2019-05-30T14:17:15.521Z,61.88
2019-05-30T14:18:15.522Z,56.25
2019-05-30T14:19:15.499Z,56.25
2019-05-30T14:20:15.488Z,56.25
2019-05-30T14:21:15.473Z,50.62
2019-05-30T14:22:15.466Z,50.62
